sensor_id;sensor_type;location;lat;lon;timestamp;temperature;humidity
9414;DHT22;4746;35.664;139.738;2023-02-10T00:01:41;3.10;99.90
9414;DHT22;4746;35.664;139.738;2023-02-10T00:04:11;3.10;99.90
9414;DHT22;4746;35.664;139.738;2023-02-10T00:06:40;3.10;99.90
9414;DHT22;4746;35.664;139.738;2023-02-10T00:09:12;3.20;99.90
9414;DHT22;4746;35.664;139.738;2023-02-10T00:11:40;3.20;99.90
9414;DHT22;4746;35.664;139.738;2023-02-10T00:14:23;3.30;99.90
9414;DHT22;4746;35.664;139.738;2023-02-10T00:16:54;3.30;99.90
9414;DHT22;4746;35.664;139.738;2023-02-10T00:19:24;3.30;99.90
9414;DHT22;4746;35.664;139.738;2023-02-10T00:21:53;3.30;99.90
9414;DHT22;4746;35.664;139.738;2023-02-10T00:24:21;3.30;99.90
9414;DHT22;4746;35.664;139.738;2023-02-10T00:26:50;3.30;99.90
9414;DHT22;4746;35.664;139.738;2023-02-10T00:29:18;3.30;99.90
9414;DHT22;4746;35.664;139.738;2023-02-10T00:31:48;3.20;99.90
9414;DHT22;4746;35.664;139.738;2023-02-10T00:34:17;3.10;99.90
9414;DHT22;4746;35.664;139.738;2023-02-10T00:36:45;3.00;99.90
9414;DHT22;4746;35.664;139.738;2023-02-10T00:39:15;2.90;99.90
9414;DHT22;4746;35.664;139.738;2023-02-10T00:41:43;2.90;99.90
9414;DHT22;4746;35.664;139.738;2023-02-10T00:44:11;2.80;99.90
9414;DHT22;4746;35.664;139.738;2023-02-10T00:46:38;2.70;99.90
9414;DHT22;4746;35.664;139.738;2023-02-10T00:49:10;2.60;99.90
9414;DHT22;4746;35.664;139.738;2023-02-10T00:51:38;2.50;99.90
9414;DHT22;4746;35.664;139.738;2023-02-10T00:54:06;2.50;99.90
9414;DHT22;4746;35.664;139.738;2023-02-10T00:56:33;2.40;99.90
9414;DHT22;4746;35.664;139.738;2023-02-10T00:59:01;2.30;99.90
9414;DHT22;4746;35.664;139.738;2023-02-10T01:01:28;2.30;99.90
9414;DHT22;4746;35.664;139.738;2023-02-10T01:03:57;2.20;99.90
9414;DHT22;4746;35.664;139.738;2023-02-10T01:06:24;2.10;99.90
9414;DHT22;4746;35.664;139.738;2023-02-10T01:08:52;2.00;99.90
9414;DHT22;4746;35.664;139.738;2023-02-10T01:11:19;2.10;99.90
9414;DHT22;4746;35.664;139.738;2023-02-10T01:13:49;2.10;99.90
9414;DHT22;4746;35.664;139.738;2023-02-10T01:16:17;2.20;99.90
9414;DHT22;4746;35.664;139.738;2023-02-10T01:18:45;2.20;99.90
9414;DHT22;4746;35.664;139.738;2023-02-10T01:21:17;2.10;99.90
9414;DHT22;4746;35.664;139.738;2023-02-10T01:23:46;2.00;99.90
9414;DHT22;4746;35.664;139.738;2023-02-10T01:26:15;2.00;99.90
9414;DHT22;4746;35.664;139.738;2023-02-10T01:28:43;2.10;99.90
9414;DHT22;4746;35.664;139.738;2023-02-10T01:31:18;2.10;99.90
9414;DHT22;4746;35.664;139.738;2023-02-10T01:33:50;2.10;99.90
9414;DHT22;4746;35.664;139.738;2023-02-10T01:36:20;2.10;99.90
9414;DHT22;4746;35.664;139.738;2023-02-10T01:38:50;2.20;99.90
9414;DHT22;4746;35.664;139.738;2023-02-10T01:41:21;2.20;99.90
9414;DHT22;4746;35.664;139.738;2023-02-10T01:43:57;2.20;99.90
9414;DHT22;4746;35.664;139.738;2023-02-10T01:46:26;2.20;99.90
9414;DHT22;4746;35.664;139.738;2023-02-10T01:49:08;2.10;99.90
9414;DHT22;4746;35.664;139.738;2023-02-10T01:51:54;2.10;99.90
9414;DHT22;4746;35.664;139.738;2023-02-10T01:54:40;2.10;99.90
9414;DHT22;4746;35.664;139.738;2023-02-10T01:57:14;2.30;99.90
9414;DHT22;4746;35.664;139.738;2023-02-10T01:59:42;2.40;99.90
9414;DHT22;4746;35.664;139.738;2023-02-10T02:02:12;2.40;99.90
9414;DHT22;4746;35.664;139.738;2023-02-10T02:05:05;2.50;99.90
9414;DHT22;4746;35.664;139.738;2023-02-10T02:07:44;2.50;99.90
9414;DHT22;4746;35.664;139.738;2023-02-10T02:10:11;2.60;99.90
9414;DHT22;4746;35.664;139.738;2023-02-10T02:12:41;2.60;99.90
9414;DHT22;4746;35.664;139.738;2023-02-10T02:18:55;2.60;99.90
9414;DHT22;4746;35.664;139.738;2023-02-10T02:22:09;2.50;99.90
9414;DHT22;4746;35.664;139.738;2023-02-10T02:28:42;2.60;99.90
9414;DHT22;4746;35.664;139.738;2023-02-10T02:39:53;2.60;99.90
9414;DHT22;4746;35.664;139.738;2023-02-10T02:42:26;2.60;99.90
9414;DHT22;4746;35.664;139.738;2023-02-10T02:51:03;2.60;99.90
9414;DHT22;4746;35.664;139.738;2023-02-10T03:02:06;2.60;99.90
9414;DHT22;4746;35.664;139.738;2023-02-10T03:04:39;2.50;99.90
9414;DHT22;4746;35.664;139.738;2023-02-10T03:07:07;2.40;99.90
9414;DHT22;4746;35.664;139.738;2023-02-10T03:09:35;2.30;99.90
9414;DHT22;4746;35.664;139.738;2023-02-10T03:12:04;2.30;99.90
9414;DHT22;4746;35.664;139.738;2023-02-10T03:14:31;2.40;99.90
9414;DHT22;4746;35.664;139.738;2023-02-10T03:16:59;2.50;99.90
9414;DHT22;4746;35.664;139.738;2023-02-10T03:19:27;2.60;99.90
9414;DHT22;4746;35.664;139.738;2023-02-10T03:21:54;2.50;99.90
9414;DHT22;4746;35.664;139.738;2023-02-10T03:24:22;2.50;99.90
9414;DHT22;4746;35.664;139.738;2023-02-10T03:26:49;2.50;99.90
9414;DHT22;4746;35.664;139.738;2023-02-10T03:29:17;2.60;99.90
9414;DHT22;4746;35.664;139.738;2023-02-10T03:31:44;2.50;99.90
9414;DHT22;4746;35.664;139.738;2023-02-10T03:34:12;2.50;99.90
9414;DHT22;4746;35.664;139.738;2023-02-10T03:36:40;2.60;99.90
9414;DHT22;4746;35.664;139.738;2023-02-10T03:39:07;2.60;99.90
9414;DHT22;4746;35.664;139.738;2023-02-10T03:41:35;2.70;99.90
9414;DHT22;4746;35.664;139.738;2023-02-10T03:44:02;2.80;99.90
9414;DHT22;4746;35.664;139.738;2023-02-10T03:46:32;2.80;99.90
9414;DHT22;4746;35.664;139.738;2023-02-10T03:49:04;2.80;99.90
9414;DHT22;4746;35.664;139.738;2023-02-10T03:51:32;2.90;99.90
9414;DHT22;4746;35.664;139.738;2023-02-10T03:54:00;2.80;99.90
9414;DHT22;4746;35.664;139.738;2023-02-10T03:56:27;2.80;99.90
9414;DHT22;4746;35.664;139.738;2023-02-10T03:58:55;2.80;99.90
9414;DHT22;4746;35.664;139.738;2023-02-10T04:01:22;2.80;99.90
9414;DHT22;4746;35.664;139.738;2023-02-10T04:03:50;2.80;99.90
9414;DHT22;4746;35.664;139.738;2023-02-10T04:06:17;2.80;99.90
9414;DHT22;4746;35.664;139.738;2023-02-10T04:08:47;2.90;99.90
9414;DHT22;4746;35.664;139.738;2023-02-10T04:11:15;2.90;99.90
9414;DHT22;4746;35.664;139.738;2023-02-10T04:13:42;3.00;99.90
9414;DHT22;4746;35.664;139.738;2023-02-10T04:16:12;3.10;99.90
9414;DHT22;4746;35.664;139.738;2023-02-10T04:18:41;3.10;99.90
9414;DHT22;4746;35.664;139.738;2023-02-10T04:21:11;3.20;99.90
9414;DHT22;4746;35.664;139.738;2023-02-10T04:23:40;3.20;99.90
9414;DHT22;4746;35.664;139.738;2023-02-10T04:26:07;3.20;99.90
9414;DHT22;4746;35.664;139.738;2023-02-10T04:28:35;3.10;99.90
9414;DHT22;4746;35.664;139.738;2023-02-10T04:31:02;3.00;99.90
9414;DHT22;4746;35.664;139.738;2023-02-10T04:33:31;3.00;99.90
9414;DHT22;4746;35.664;139.738;2023-02-10T04:35:59;3.10;99.90
9414;DHT22;4746;35.664;139.738;2023-02-10T04:38:29;3.00;99.90
9414;DHT22;4746;35.664;139.738;2023-02-10T04:40:57;3.10;99.90
9414;DHT22;4746;35.664;139.738;2023-02-10T04:43:25;3.10;99.90
9414;DHT22;4746;35.664;139.738;2023-02-10T04:45:52;3.10;99.90
9414;DHT22;4746;35.664;139.738;2023-02-10T04:48:20;3.10;99.90
9414;DHT22;4746;35.664;139.738;2023-02-10T04:50:47;3.20;99.90
9414;DHT22;4746;35.664;139.738;2023-02-10T04:53:15;3.30;99.90
9414;DHT22;4746;35.664;139.738;2023-02-10T04:55:43;3.40;99.90
9414;DHT22;4746;35.664;139.738;2023-02-10T04:58:10;3.40;99.90
9414;DHT22;4746;35.664;139.738;2023-02-10T05:00:40;3.40;99.90
9414;DHT22;4746;35.664;139.738;2023-02-10T05:03:08;3.30;99.90
9414;DHT22;4746;35.664;139.738;2023-02-10T05:05:35;3.30;99.90
9414;DHT22;4746;35.664;139.738;2023-02-10T05:08:03;3.40;99.90
9414;DHT22;4746;35.664;139.738;2023-02-10T05:10:32;3.40;99.90
9414;DHT22;4746;35.664;139.738;2023-02-10T05:12:59;3.60;99.90
9414;DHT22;4746;35.664;139.738;2023-02-10T05:15:27;3.60;99.90
9414;DHT22;4746;35.664;139.738;2023-02-10T05:17:55;3.60;99.90
9414;DHT22;4746;35.664;139.738;2023-02-10T05:20:24;3.70;99.90
9414;DHT22;4746;35.664;139.738;2023-02-10T05:22:52;3.60;99.90
9414;DHT22;4746;35.664;139.738;2023-02-10T05:25:19;3.60;99.90
9414;DHT22;4746;35.664;139.738;2023-02-10T05:27:47;3.60;99.90
9414;DHT22;4746;35.664;139.738;2023-02-10T05:30:14;3.70;99.90
9414;DHT22;4746;35.664;139.738;2023-02-10T05:32:43;3.60;99.90
9414;DHT22;4746;35.664;139.738;2023-02-10T05:35:10;3.50;99.90
9414;DHT22;4746;35.664;139.738;2023-02-10T05:37:39;3.40;99.90
9414;DHT22;4746;35.664;139.738;2023-02-10T05:40:07;3.40;99.90
9414;DHT22;4746;35.664;139.738;2023-02-10T05:42:35;3.40;99.90
9414;DHT22;4746;35.664;139.738;2023-02-10T05:45:03;3.40;99.90
9414;DHT22;4746;35.664;139.738;2023-02-10T05:47:30;3.40;99.90
9414;DHT22;4746;35.664;139.738;2023-02-10T05:49:58;3.40;99.90
9414;DHT22;4746;35.664;139.738;2023-02-10T05:52:25;3.40;99.90
9414;DHT22;4746;35.664;139.738;2023-02-10T05:54:53;3.40;99.90
9414;DHT22;4746;35.664;139.738;2023-02-10T05:57:20;3.40;99.90
9414;DHT22;4746;35.664;139.738;2023-02-10T05:59:48;3.40;99.90
9414;DHT22;4746;35.664;139.738;2023-02-10T06:02:15;3.30;99.90
9414;DHT22;4746;35.664;139.738;2023-02-10T06:04:43;3.30;99.90
9414;DHT22;4746;35.664;139.738;2023-02-10T06:07:11;3.30;99.90
9414;DHT22;4746;35.664;139.738;2023-02-10T06:09:38;3.20;99.90
9414;DHT22;4746;35.664;139.738;2023-02-10T06:12:06;3.10;99.90
9414;DHT22;4746;35.664;139.738;2023-02-10T06:14:34;3.00;99.90
9414;DHT22;4746;35.664;139.738;2023-02-10T06:17:05;3.00;99.90
9414;DHT22;4746;35.664;139.738;2023-02-10T06:19:39;2.90;99.90
9414;DHT22;4746;35.664;139.738;2023-02-10T06:22:08;2.80;99.90
9414;DHT22;4746;35.664;139.738;2023-02-10T06:24:36;2.70;99.90
9414;DHT22;4746;35.664;139.738;2023-02-10T06:27:05;2.70;99.90
9414;DHT22;4746;35.664;139.738;2023-02-10T06:29:35;2.80;99.90
9414;DHT22;4746;35.664;139.738;2023-02-10T06:32:03;2.90;99.90
9414;DHT22;4746;35.664;139.738;2023-02-10T06:34:30;2.90;99.90
9414;DHT22;4746;35.664;139.738;2023-02-10T06:36:58;2.90;99.90
9414;DHT22;4746;35.664;139.738;2023-02-10T06:39:25;2.80;99.90
9414;DHT22;4746;35.664;139.738;2023-02-10T06:41:53;2.80;99.90
9414;DHT22;4746;35.664;139.738;2023-02-10T06:44:21;2.80;99.90
9414;DHT22;4746;35.664;139.738;2023-02-10T06:46:48;2.80;99.90
9414;DHT22;4746;35.664;139.738;2023-02-10T06:49:16;2.80;99.90
9414;DHT22;4746;35.664;139.738;2023-02-10T06:51:44;2.80;99.90
9414;DHT22;4746;35.664;139.738;2023-02-10T06:54:11;2.80;99.90
9414;DHT22;4746;35.664;139.738;2023-02-10T06:56:39;2.80;99.90
9414;DHT22;4746;35.664;139.738;2023-02-10T06:59:12;2.80;99.90
9414;DHT22;4746;35.664;139.738;2023-02-10T07:01:40;2.90;99.90
9414;DHT22;4746;35.664;139.738;2023-02-10T07:04:10;2.90;99.90
9414;DHT22;4746;35.664;139.738;2023-02-10T07:06:38;2.90;99.90
9414;DHT22;4746;35.664;139.738;2023-02-10T07:09:06;2.90;99.90
9414;DHT22;4746;35.664;139.738;2023-02-10T07:11:34;2.90;99.90
9414;DHT22;4746;35.664;139.738;2023-02-10T07:14:01;2.90;99.90
9414;DHT22;4746;35.664;139.738;2023-02-10T07:16:29;2.90;99.90
9414;DHT22;4746;35.664;139.738;2023-02-10T07:18:56;2.80;99.90
9414;DHT22;4746;35.664;139.738;2023-02-10T07:21:24;2.90;99.90
9414;DHT22;4746;35.664;139.738;2023-02-10T07:23:52;2.80;99.90
9414;DHT22;4746;35.664;139.738;2023-02-10T07:26:19;2.90;99.90
9414;DHT22;4746;35.664;139.738;2023-02-10T07:28:47;2.90;99.90
9414;DHT22;4746;35.664;139.738;2023-02-10T07:31:14;3.00;99.90
9414;DHT22;4746;35.664;139.738;2023-02-10T07:33:42;3.00;99.90
9414;DHT22;4746;35.664;139.738;2023-02-10T07:36:10;3.00;99.90
9414;DHT22;4746;35.664;139.738;2023-02-10T07:38:38;3.00;99.90
9414;DHT22;4746;35.664;139.738;2023-02-10T07:41:07;3.10;99.90
9414;DHT22;4746;35.664;139.738;2023-02-10T07:43:35;3.10;99.90
9414;DHT22;4746;35.664;139.738;2023-02-10T07:46:04;3.10;99.90
9414;DHT22;4746;35.664;139.738;2023-02-10T07:48:34;3.00;99.90
9414;DHT22;4746;35.664;139.738;2023-02-10T07:51:01;3.00;99.90
9414;DHT22;4746;35.664;139.738;2023-02-10T07:53:29;2.90;99.90
9414;DHT22;4746;35.664;139.738;2023-02-10T07:55:58;2.90;99.90
9414;DHT22;4746;35.664;139.738;2023-02-10T07:58:26;3.00;99.90
9414;DHT22;4746;35.664;139.738;2023-02-10T08:00:54;3.00;99.90
9414;DHT22;4746;35.664;139.738;2023-02-10T08:03:23;3.00;99.90
9414;DHT22;4746;35.664;139.738;2023-02-10T08:05:51;3.10;99.90
9414;DHT22;4746;35.664;139.738;2023-02-10T08:08:20;3.10;99.90
9414;DHT22;4746;35.664;139.738;2023-02-10T08:10:51;3.00;99.90
9414;DHT22;4746;35.664;139.738;2023-02-10T08:13:36;3.00;99.90
9414;DHT22;4746;35.664;139.738;2023-02-10T08:16:05;3.00;99.90
9414;DHT22;4746;35.664;139.738;2023-02-10T08:18:35;3.10;99.90
9414;DHT22;4746;35.664;139.738;2023-02-10T08:21:02;3.10;99.90
9414;DHT22;4746;35.664;139.738;2023-02-10T08:23:31;3.10;99.90
9414;DHT22;4746;35.664;139.738;2023-02-10T08:26:06;3.10;99.90
9414;DHT22;4746;35.664;139.738;2023-02-10T08:28:37;3.10;99.90
9414;DHT22;4746;35.664;139.738;2023-02-10T08:31:07;3.10;99.90
9414;DHT22;4746;35.664;139.738;2023-02-10T08:33:37;3.10;99.90
9414;DHT22;4746;35.664;139.738;2023-02-10T08:36:06;3.20;99.90
9414;DHT22;4746;35.664;139.738;2023-02-10T08:38:36;3.20;99.90
9414;DHT22;4746;35.664;139.738;2023-02-10T08:41:04;3.30;99.90
9414;DHT22;4746;35.664;139.738;2023-02-10T08:43:32;3.30;99.90
9414;DHT22;4746;35.664;139.738;2023-02-10T08:46:00;3.30;99.90
9414;DHT22;4746;35.664;139.738;2023-02-10T08:48:29;3.30;99.90
9414;DHT22;4746;35.664;139.738;2023-02-10T08:50:58;3.30;99.90
9414;DHT22;4746;35.664;139.738;2023-02-10T08:53:26;3.20;99.90
9414;DHT22;4746;35.664;139.738;2023-02-10T08:55:58;3.20;99.90
9414;DHT22;4746;35.664;139.738;2023-02-10T08:58:28;3.30;99.90
9414;DHT22;4746;35.664;139.738;2023-02-10T09:00:56;3.30;99.90
9414;DHT22;4746;35.664;139.738;2023-02-10T09:03:23;3.30;99.90
9414;DHT22;4746;35.664;139.738;2023-02-10T09:05:53;3.30;99.90
9414;DHT22;4746;35.664;139.738;2023-02-10T09:08:21;3.30;99.90
9414;DHT22;4746;35.664;139.738;2023-02-10T09:10:48;3.20;99.90
9414;DHT22;4746;35.664;139.738;2023-02-10T09:13:16;3.20;99.90
9414;DHT22;4746;35.664;139.738;2023-02-10T09:15:44;3.30;99.90
9414;DHT22;4746;35.664;139.738;2023-02-10T09:18:11;3.40;99.90
9414;DHT22;4746;35.664;139.738;2023-02-10T09:20:39;3.30;99.90
9414;DHT22;4746;35.664;139.738;2023-02-10T09:23:06;3.30;99.90
9414;DHT22;4746;35.664;139.738;2023-02-10T09:25:34;3.30;99.90
9414;DHT22;4746;35.664;139.738;2023-02-10T09:28:01;3.30;99.90
9414;DHT22;4746;35.664;139.738;2023-02-10T09:30:29;3.30;99.90
9414;DHT22;4746;35.664;139.738;2023-02-10T09:32:57;3.40;99.90
9414;DHT22;4746;35.664;139.738;2023-02-10T09:35:26;3.40;99.90
9414;DHT22;4746;35.664;139.738;2023-02-10T09:37:56;3.40;99.90
9414;DHT22;4746;35.664;139.738;2023-02-10T09:40:28;3.50;99.90
9414;DHT22;4746;35.664;139.738;2023-02-10T09:43:33;3.50;99.90
9414;DHT22;4746;35.664;139.738;2023-02-10T09:49:38;3.60;99.90
9414;DHT22;4746;35.664;139.738;2023-02-10T09:54:54;3.60;99.90
9414;DHT22;4746;35.664;139.738;2023-02-10T10:00:05;3.60;99.90
9414;DHT22;4746;35.664;139.738;2023-02-10T10:02:54;3.60;99.90
9414;DHT22;4746;35.664;139.738;2023-02-10T10:08:38;3.40;99.90
9414;DHT22;4746;35.664;139.738;2023-02-10T10:11:42;3.30;99.90
9414;DHT22;4746;35.664;139.738;2023-02-10T10:14:25;3.30;99.90
9414;DHT22;4746;35.664;139.738;2023-02-10T10:23:15;3.30;99.90
9414;DHT22;4746;35.664;139.738;2023-02-10T10:29:21;3.40;99.90
9414;DHT22;4746;35.664;139.738;2023-02-10T10:32:11;3.40;99.90
9414;DHT22;4746;35.664;139.738;2023-02-10T10:34:59;3.40;99.90
9414;DHT22;4746;35.664;139.738;2023-02-10T10:37:29;3.40;99.90
9414;DHT22;4746;35.664;139.738;2023-02-10T10:40:04;3.40;99.90
9414;DHT22;4746;35.664;139.738;2023-02-10T10:42:43;3.40;99.90
9414;DHT22;4746;35.664;139.738;2023-02-10T10:45:23;3.40;99.90
9414;DHT22;4746;35.664;139.738;2023-02-10T10:50:40;3.30;99.90
9414;DHT22;4746;35.664;139.738;2023-02-10T10:56:46;3.30;99.90
9414;DHT22;4746;35.664;139.738;2023-02-10T10:59:38;3.30;99.90
9414;DHT22;4746;35.664;139.738;2023-02-10T11:02:14;3.30;99.90
9414;DHT22;4746;35.664;139.738;2023-02-10T11:04:44;3.20;99.90
9414;DHT22;4746;35.664;139.738;2023-02-10T11:07:20;3.20;99.90
9414;DHT22;4746;35.664;139.738;2023-02-10T11:09:52;3.30;99.90
9414;DHT22;4746;35.664;139.738;2023-02-10T11:12:34;3.40;99.90
9414;DHT22;4746;35.664;139.738;2023-02-10T11:15:23;3.40;99.90
9414;DHT22;4746;35.664;139.738;2023-02-10T11:18:07;3.50;99.90
9414;DHT22;4746;35.664;139.738;2023-02-10T11:21:15;3.50;99.90
9414;DHT22;4746;35.664;139.738;2023-02-10T11:23:53;3.40;99.90
9414;DHT22;4746;35.664;139.738;2023-02-10T11:26:23;3.40;99.90
9414;DHT22;4746;35.664;139.738;2023-02-10T11:28:52;3.40;99.90
9414;DHT22;4746;35.664;139.738;2023-02-10T11:31:34;3.40;99.90
9414;DHT22;4746;35.664;139.738;2023-02-10T11:34:23;3.40;99.90
9414;DHT22;4746;35.664;139.738;2023-02-10T11:37:18;3.50;99.90
9414;DHT22;4746;35.664;139.738;2023-02-10T11:40:25;3.60;99.90
9414;DHT22;4746;35.664;139.738;2023-02-10T11:42:58;3.50;99.90
9414;DHT22;4746;35.664;139.738;2023-02-10T11:45:30;3.60;99.90
9414;DHT22;4746;35.664;139.738;2023-02-10T11:48:16;3.60;99.90
9414;DHT22;4746;35.664;139.738;2023-02-10T11:50:45;3.60;99.90
9414;DHT22;4746;35.664;139.738;2023-02-10T11:53:34;3.60;99.90
9414;DHT22;4746;35.664;139.738;2023-02-10T11:56:24;3.50;99.90
9414;DHT22;4746;35.664;139.738;2023-02-10T11:59:37;3.50;99.90
9414;DHT22;4746;35.664;139.738;2023-02-10T12:05:51;3.50;99.90
9414;DHT22;4746;35.664;139.738;2023-02-10T12:11:54;3.60;99.90
9414;DHT22;4746;35.664;139.738;2023-02-10T12:17:40;3.50;99.90
9414;DHT22;4746;35.664;139.738;2023-02-10T12:23:35;3.60;99.90
9414;DHT22;4746;35.664;139.738;2023-02-10T12:26:25;3.60;99.90
9414;DHT22;4746;35.664;139.738;2023-02-10T12:35:35;3.60;99.90
9414;DHT22;4746;35.664;139.738;2023-02-10T12:38:23;3.70;99.90
9414;DHT22;4746;35.664;139.738;2023-02-10T12:46:54;3.70;99.90
9414;DHT22;4746;35.664;139.738;2023-02-10T12:53:14;3.70;99.90
9414;DHT22;4746;35.664;139.738;2023-02-10T12:56:07;3.70;99.90
9414;DHT22;4746;35.664;139.738;2023-02-10T12:59:07;3.70;99.90
9414;DHT22;4746;35.664;139.738;2023-02-10T13:01:44;3.70;99.90
9414;DHT22;4746;35.664;139.738;2023-02-10T13:07:32;3.70;99.90
9414;DHT22;4746;35.664;139.738;2023-02-10T13:12:48;3.70;99.90
9414;DHT22;4746;35.664;139.738;2023-02-10T13:15:43;3.70;99.90
9414;DHT22;4746;35.664;139.738;2023-02-10T13:18:22;3.80;99.90
9414;DHT22;4746;35.664;139.738;2023-02-10T13:21:20;3.80;99.90
9414;DHT22;4746;35.664;139.738;2023-02-10T13:27:10;3.90;99.90
9414;DHT22;4746;35.664;139.738;2023-02-10T13:33:23;4.00;99.90
9414;DHT22;4746;35.664;139.738;2023-02-10T13:35:55;4.00;99.90
9414;DHT22;4746;35.664;139.738;2023-02-10T13:38:24;4.10;99.90
9414;DHT22;4746;35.664;139.738;2023-02-10T13:40:58;4.10;99.90
9414;DHT22;4746;35.664;139.738;2023-02-10T13:43:55;4.10;99.90
9414;DHT22;4746;35.664;139.738;2023-02-10T13:46:28;4.10;99.90
9414;DHT22;4746;35.664;139.738;2023-02-10T13:49:00;4.10;99.90
9414;DHT22;4746;35.664;139.738;2023-02-10T13:51:38;4.10;99.90
9414;DHT22;4746;35.664;139.738;2023-02-10T13:54:06;4.10;99.90
9414;DHT22;4746;35.664;139.738;2023-02-10T13:56:57;4.10;99.90
9414;DHT22;4746;35.664;139.738;2023-02-10T13:59:51;4.20;99.90
9414;DHT22;4746;35.664;139.738;2023-02-10T14:02:37;4.20;99.90
9414;DHT22;4746;35.664;139.738;2023-02-10T14:06:08;4.30;99.90
9414;DHT22;4746;35.664;139.738;2023-02-10T14:08:36;4.30;99.90
9414;DHT22;4746;35.664;139.738;2023-02-10T14:14:30;4.40;99.90
9414;DHT22;4746;35.664;139.738;2023-02-10T14:16:44;4.30;99.90
9414;DHT22;4746;35.664;139.738;2023-02-10T14:21:57;4.40;99.90
9414;DHT22;4746;35.664;139.738;2023-02-10T14:24:35;4.40;99.90
9414;DHT22;4746;35.664;139.738;2023-02-10T14:27:12;4.50;99.90
9414;DHT22;4746;35.664;139.738;2023-02-10T14:29:56;4.50;99.90
9414;DHT22;4746;35.664;139.738;2023-02-10T14:32:31;4.60;99.90
9414;DHT22;4746;35.664;139.738;2023-02-10T14:35:23;4.60;99.90
9414;DHT22;4746;35.664;139.738;2023-02-10T14:37:53;4.60;99.90
9414;DHT22;4746;35.664;139.738;2023-02-10T14:40:24;4.60;99.90
9414;DHT22;4746;35.664;139.738;2023-02-10T14:42:54;4.60;99.90
9414;DHT22;4746;35.664;139.738;2023-02-10T14:45:25;4.50;99.90
9414;DHT22;4746;35.664;139.738;2023-02-10T14:47:56;4.50;99.90
9414;DHT22;4746;35.664;139.738;2023-02-10T14:50:34;4.50;99.90
9414;DHT22;4746;35.664;139.738;2023-02-10T14:53:05;4.50;99.90
9414;DHT22;4746;35.664;139.738;2023-02-10T14:55:34;4.50;99.90
9414;DHT22;4746;35.664;139.738;2023-02-10T14:58:15;4.40;99.90
9414;DHT22;4746;35.664;139.738;2023-02-10T15:00:56;4.40;99.90
9414;DHT22;4746;35.664;139.738;2023-02-10T15:03:27;4.40;99.90
9414;DHT22;4746;35.664;139.738;2023-02-10T15:05:56;4.30;99.90
9414;DHT22;4746;35.664;139.738;2023-02-10T15:11:25;4.40;99.90
9414;DHT22;4746;35.664;139.738;2023-02-10T15:14:19;4.30;99.90
9414;DHT22;4746;35.664;139.738;2023-02-10T15:16:51;4.30;99.90
9414;DHT22;4746;35.664;139.738;2023-02-10T15:19:20;4.30;99.90
9414;DHT22;4746;35.664;139.738;2023-02-10T15:21:48;4.30;99.90
9414;DHT22;4746;35.664;139.738;2023-02-10T15:24:27;4.20;99.90
9414;DHT22;4746;35.664;139.738;2023-02-10T15:27:18;4.20;99.90
9414;DHT22;4746;35.664;139.738;2023-02-10T15:29:49;4.20;99.90
9414;DHT22;4746;35.664;139.738;2023-02-10T15:32:19;4.20;99.90
9414;DHT22;4746;35.664;139.738;2023-02-10T15:34:48;4.30;99.90
9414;DHT22;4746;35.664;139.738;2023-02-10T15:37:24;4.30;99.90
9414;DHT22;4746;35.664;139.738;2023-02-10T15:40:00;4.40;99.90
9414;DHT22;4746;35.664;139.738;2023-02-10T15:42:32;4.40;99.90
9414;DHT22;4746;35.664;139.738;2023-02-10T15:48:05;4.50;99.90
9414;DHT22;4746;35.664;139.738;2023-02-10T15:50:37;4.50;99.90
9414;DHT22;4746;35.664;139.738;2023-02-10T15:53:10;4.50;99.90
9414;DHT22;4746;35.664;139.738;2023-02-10T15:55:45;4.50;99.90
9414;DHT22;4746;35.664;139.738;2023-02-10T15:58:14;4.60;99.90
9414;DHT22;4746;35.664;139.738;2023-02-10T16:00:43;4.60;99.90
9414;DHT22;4746;35.664;139.738;2023-02-10T16:03:12;4.70;99.90
9414;DHT22;4746;35.664;139.738;2023-02-10T16:05:43;4.70;99.90
9414;DHT22;4746;35.664;139.738;2023-02-10T16:08:20;4.80;99.90
9414;DHT22;4746;35.664;139.738;2023-02-10T16:10:49;4.80;99.90
9414;DHT22;4746;35.664;139.738;2023-02-10T16:13:16;4.90;99.90
9414;DHT22;4746;35.664;139.738;2023-02-10T16:15:46;4.90;99.90
9414;DHT22;4746;35.664;139.738;2023-02-10T16:18:21;4.90;99.90
9414;DHT22;4746;35.664;139.738;2023-02-10T16:20:51;4.90;99.90
9414;DHT22;4746;35.664;139.738;2023-02-10T16:23:21;4.90;99.90
9414;DHT22;4746;35.664;139.738;2023-02-10T16:25:48;4.90;99.90
9414;DHT22;4746;35.664;139.738;2023-02-10T16:28:17;5.00;99.90
9414;DHT22;4746;35.664;139.738;2023-02-10T16:30:46;5.00;99.90
9414;DHT22;4746;35.664;139.738;2023-02-10T16:33:14;5.00;99.90
9414;DHT22;4746;35.664;139.738;2023-02-10T16:35:42;5.10;99.90
9414;DHT22;4746;35.664;139.738;2023-02-10T16:38:10;5.10;99.90
9414;DHT22;4746;35.664;139.738;2023-02-10T16:40:39;5.10;99.90
9414;DHT22;4746;35.664;139.738;2023-02-10T16:43:07;5.10;99.90
9414;DHT22;4746;35.664;139.738;2023-02-10T16:45:35;5.10;99.90
9414;DHT22;4746;35.664;139.738;2023-02-10T16:48:04;5.10;99.90
9414;DHT22;4746;35.664;139.738;2023-02-10T16:50:38;5.00;99.90
9414;DHT22;4746;35.664;139.738;2023-02-10T16:53:08;5.00;99.90
9414;DHT22;4746;35.664;139.738;2023-02-10T16:55:38;4.90;99.90
9414;DHT22;4746;35.664;139.738;2023-02-10T16:58:11;4.90;99.90
9414;DHT22;4746;35.664;139.738;2023-02-10T17:00:41;4.90;99.90
9414;DHT22;4746;35.664;139.738;2023-02-10T17:03:10;4.80;99.90
9414;DHT22;4746;35.664;139.738;2023-02-10T17:05:37;4.70;99.90
9414;DHT22;4746;35.664;139.738;2023-02-10T17:08:06;4.70;99.90
9414;DHT22;4746;35.664;139.738;2023-02-10T17:10:34;4.70;99.90
9414;DHT22;4746;35.664;139.738;2023-02-10T17:13:01;4.70;99.90
9414;DHT22;4746;35.664;139.738;2023-02-10T17:15:30;4.70;99.90
9414;DHT22;4746;35.664;139.738;2023-02-10T17:17:58;4.80;99.90
9414;DHT22;4746;35.664;139.738;2023-02-10T17:20:29;4.80;99.90
9414;DHT22;4746;35.664;139.738;2023-02-10T17:23:00;4.90;99.90
9414;DHT22;4746;35.664;139.738;2023-02-10T17:25:32;4.90;99.90
9414;DHT22;4746;35.664;139.738;2023-02-10T17:28:03;4.90;99.90
9414;DHT22;4746;35.664;139.738;2023-02-10T17:30:33;4.90;99.90
9414;DHT22;4746;35.664;139.738;2023-02-10T17:33:04;4.90;99.90
9414;DHT22;4746;35.664;139.738;2023-02-10T17:35:31;5.00;99.90
9414;DHT22;4746;35.664;139.738;2023-02-10T17:37:59;5.00;99.90
9414;DHT22;4746;35.664;139.738;2023-02-10T17:40:44;5.00;99.90
9414;DHT22;4746;35.664;139.738;2023-02-10T17:43:12;5.10;99.90
9414;DHT22;4746;35.664;139.738;2023-02-10T17:45:40;5.10;99.90
9414;DHT22;4746;35.664;139.738;2023-02-10T17:48:07;5.30;99.90
9414;DHT22;4746;35.664;139.738;2023-02-10T17:50:37;5.30;99.90
9414;DHT22;4746;35.664;139.738;2023-02-10T17:53:05;5.50;99.90
9414;DHT22;4746;35.664;139.738;2023-02-10T17:55:32;5.50;99.90
9414;DHT22;4746;35.664;139.738;2023-02-10T17:58:00;5.60;99.90
9414;DHT22;4746;35.664;139.738;2023-02-10T18:00:27;5.70;99.90
9414;DHT22;4746;35.664;139.738;2023-02-10T18:02:55;5.70;99.90
9414;DHT22;4746;35.664;139.738;2023-02-10T18:05:22;5.80;99.90
9414;DHT22;4746;35.664;139.738;2023-02-10T18:07:50;5.80;99.90
9414;DHT22;4746;35.664;139.738;2023-02-10T18:10:18;5.90;99.90